Time;durP1;ratioP1;P1;durP2;ratioP2;P2;SDS_P1;SDS_P2;PMS_P1;PMS_P2;Temp;Humidity;BMP_temperature;BMP_pressure;BME280_temperature;BME280_humidity;BME280_pressure;Samples;Min_cycle;Max_cycle;Signal;HPM_P1;HPM_P2
2021/05/07 00:01:51;;;;;;;13.32;7.03;;;7.40;99.90;;;;;;5044738;28;20304;-68
2021/05/07 00:04:19;;;;;;;;;;;7.50;99.90;;;;;;5046793;28;20082;-68
2021/05/07 00:06:48;;;;;;;12.65;6.60;;;7.40;99.90;;;;;;5044937;28;20475;-68
2021/05/07 00:09:14;;;;;;;13.23;7.23;;;7.40;99.90;;;;;;5045064;28;20098;-68
2021/05/07 00:11:41;;;;;;;11.80;6.63;;;7.50;99.90;;;;;;5043886;28;21051;-68
2021/05/07 00:14:07;;;;;;;;;;;7.40;99.90;;;;;;5045511;28;20078;-68
2021/05/07 00:16:34;;;;;;;11.38;5.78;;;7.50;99.90;;;;;;5045847;28;21137;-68
2021/05/07 00:19:01;;;;;;;12.10;6.53;;;7.50;99.90;;;;;;5048570;28;20075;-68
2021/05/07 00:21:27;;;;;;;;;;;7.40;99.90;;;;;;5054139;28;20146;-68
2021/05/07 00:23:53;;;;;;;12.13;6.28;;;7.40;99.90;;;;;;5052960;28;20413;-68
2021/05/07 00:26:20;;;;;;;12.32;7.00;;;7.50;99.90;;;;;;5050609;28;20090;-68
2021/05/07 00:28:46;;;;;;;;;;;7.50;99.90;;;;;;5053319;28;20828;-68
2021/05/07 00:31:12;;;;;;;12.85;6.78;;;7.40;99.90;;;;;;5050589;28;19963;-68
2021/05/07 00:33:40;;;;;;;;;;;7.50;99.90;;;;;;5052773;28;20048;-68
2021/05/07 00:36:06;;;;;;;11.07;5.40;;;7.40;99.90;;;;;;5051551;28;20727;-68
2021/05/07 00:38:33;;;;;;;10.20;5.28;;;7.40;99.90;;;;;;5049550;28;20770;-68
2021/05/07 00:40:59;;;;;;;9.70;5.20;;;7.40;99.90;;;;;;5053021;28;20129;-68
2021/05/07 00:43:26;;;;;;;11.27;6.32;;;7.40;99.90;;;;;;5052614;28;20048;-67
2021/05/07 00:45:52;;;;;;;11.90;6.22;;;7.30;99.90;;;;;;5052670;28;20056;-68
2021/05/07 00:48:19;;;;;;;11.38;6.00;;;7.40;99.90;;;;;;5050571;28;20137;-68
2021/05/07 00:50:48;;;;;;;10.32;5.57;;;7.40;99.90;;;;;;5049920;28;20052;-68
2021/05/07 00:53:16;;;;;;;12.43;6.93;;;7.40;99.90;;;;;;5050017;28;20048;-68
2021/05/07 00:55:42;;;;;;;9.63;5.72;;;7.30;99.90;;;;;;5050328;28;20135;-68
2021/05/07 00:58:09;;;;;;;10.00;6.35;;;7.30;99.90;;;;;;5050184;28;20051;-68
2021/05/07 01:00:36;;;;;;;12.95;6.72;;;7.30;99.90;;;;;;5052570;28;20161;-68
2021/05/07 01:03:03;;;;;;;12.27;6.63;;;7.30;99.90;;;;;;5050305;28;20051;-68
2021/05/07 01:05:30;;;;;;;14.80;7.00;;;7.40;99.90;;;;;;5051798;28;20079;-68
2021/05/07 01:07:58;;;;;;;14.75;8.35;;;7.40;99.90;;;;;;5051697;28;20504;-68
2021/05/07 01:10:25;;;;;;;15.77;7.28;;;7.30;99.90;;;;;;5051118;28;21427;-68
2021/05/07 01:12:52;;;;;;;12.35;6.85;;;7.30;99.90;;;;;;5051325;28;20512;-68
2021/05/07 01:15:20;;;;;;;11.57;6.00;;;7.30;99.90;;;;;;5050927;28;20052;-68
2021/05/07 01:17:49;;;;;;;11.63;6.57;;;7.30;99.90;;;;;;5052084;28;20090;-68
2021/05/07 01:20:18;;;;;;;12.55;6.82;;;7.30;99.90;;;;;;5051108;28;20083;-68
2021/05/07 01:22:47;;;;;;;13.73;6.95;;;7.30;99.90;;;;;;5050788;28;20052;-68
2021/05/07 01:25:16;;;;;;;13.20;7.07;;;7.30;99.90;;;;;;5048604;28;21314;-68
2021/05/07 01:27:43;;;;;;;13.15;7.65;;;7.40;99.90;;;;;;5050451;28;20109;-68
2021/05/07 01:30:16;;;;;;;12.77;7.10;;;7.40;99.90;;;;;;5047431;28;20452;-68
2021/05/07 01:32:43;;;;;;;11.95;6.78;;;7.30;99.90;;;;;;5049141;28;20049;-68
2021/05/07 01:35:13;;;;;;;12.18;6.60;;;7.30;99.90;;;;;;5048844;28;20072;-68
2021/05/07 01:37:41;;;;;;;15.40;7.63;;;7.40;99.90;;;;;;5044749;28;20562;-68
2021/05/07 01:40:13;;;;;;;13.32;8.02;;;7.40;99.90;;;;;;5040298;28;20075;-68
2021/05/07 01:42:39;;;;;;;13.68;7.78;;;7.40;99.90;;;;;;5040819;28;20048;-68
2021/05/07 01:45:08;;;;;;;14.15;8.32;;;7.40;99.90;;;;;;5040426;28;20055;-68
2021/05/07 01:47:34;;;;;;;14.32;8.05;;;7.40;99.90;;;;;;5043619;28;20052;-68
2021/05/07 01:50:01;;;;;;;13.38;8.20;;;7.40;99.90;;;;;;5045277;28;20079;-68
2021/05/07 01:52:27;;;;;;;12.55;6.88;;;7.40;99.90;;;;;;5043972;28;20063;-68
2021/05/07 01:54:55;;;;;;;13.45;8.20;;;7.30;99.90;;;;;;5044340;28;20178;-68
2021/05/07 01:57:21;;;;;;;13.57;8.10;;;7.30;99.90;;;;;;5043142;28;20139;-67
2021/05/07 01:59:48;;;;;;;13.68;7.82;;;7.40;99.90;;;;;;5044826;28;20078;-67
2021/05/07 02:02:14;;;;;;;;;;;7.30;99.90;;;;;;5050500;28;20044;-68
2021/05/07 02:04:40;;;;;;;13.17;7.70;;;7.40;99.90;;;;;;5044551;28;19932;-67
2021/05/07 02:07:07;;;;;;;15.25;8.60;;;7.40;99.90;;;;;;5040475;28;20045;-67
2021/05/07 02:09:33;;;;;;;;;;;7.40;99.90;;;;;;5047417;28;20072;-67
2021/05/07 02:12:01;;;;;;;14.60;8.13;;;7.30;99.90;;;;;;5044260;28;19990;-68
2021/05/07 02:14:27;;;;;;;15.02;9.02;;;7.30;99.90;;;;;;5046646;28;20113;-68
2021/05/07 02:16:54;;;;;;;;;;;7.40;99.90;;;;;;5042289;28;20092;-68
2021/05/07 02:19:20;;;;;;;15.23;8.52;;;7.30;99.90;;;;;;5043812;28;19975;-68
2021/05/07 02:21:49;;;;;;;;;;;7.30;99.90;;;;;;5045979;28;20102;-68
2021/05/07 02:24:16;;;;;;;17.27;8.75;;;7.40;99.90;;;;;;5045649;28;19960;-68
2021/05/07 02:26:42;;;;;;;;;;;7.40;99.90;;;;;;5043129;28;20062;-68
2021/05/07 02:29:10;;;;;;;14.52;8.82;;;7.30;99.90;;;;;;5041283;28;19935;-68
2021/05/07 02:31:36;;;;;;;17.23;9.52;;;7.40;99.90;;;;;;5043403;28;20063;-68
2021/05/07 02:34:03;;;;;;;12.80;8.52;;;7.30;99.90;;;;;;5043732;28;20052;-68
2021/05/07 02:36:30;;;;;;;15.75;9.45;;;7.40;99.90;;;;;;5041289;28;20059;-68
2021/05/07 02:38:56;;;;;;;;;;;7.50;99.90;;;;;;5041850;28;20060;-67
2021/05/07 02:41:22;;;;;;;14.20;7.82;;;7.50;99.90;;;;;;5041923;28;19947;-68
2021/05/07 02:43:49;;;;;;;;;;;7.50;99.90;;;;;;5045085;28;20423;-67
2021/05/07 02:46:16;;;;;;;11.77;7.32;;;7.50;99.90;;;;;;5045167;28;19920;-67
2021/05/07 02:48:42;;;;;;;12.68;7.28;;;7.50;99.90;;;;;;5039480;28;20052;-67
2021/05/07 02:51:09;;;;;;;;;;;7.40;99.90;;;;;;5044464;28;20079;-67
2021/05/07 02:53:35;;;;;;;13.52;7.05;;;7.40;99.90;;;;;;5043651;28;19924;-68
2021/05/07 02:56:02;;;;;;;12.57;7.95;;;7.40;99.90;;;;;;5043369;28;20728;-67
2021/05/07 02:58:28;;;;;;;;;;;7.40;99.90;;;;;;5043086;28;20631;-68
2021/05/07 03:00:55;;;;;;;12.95;7.43;;;7.40;99.90;;;;;;5042547;28;19974;-67
2021/05/07 03:03:22;;;;;;;13.85;6.95;;;7.40;99.90;;;;;;5043633;28;20096;-68
2021/05/07 03:05:49;;;;;;;15.10;8.27;;;7.30;99.90;;;;;;5039401;28;20087;-67
2021/05/07 03:08:21;;;;;;;14.23;8.25;;;7.30;99.90;;;;;;5044217;28;20052;-67
2021/05/07 03:10:48;;;;;;;16.90;9.13;;;7.20;99.90;;;;;;5040495;28;20733;-67
2021/05/07 03:13:14;;;;;;;13.32;8.23;;;7.20;99.90;;;;;;5040922;28;20051;-67
2021/05/07 03:15:41;;;;;;;13.85;8.20;;;7.30;99.90;;;;;;5042610;28;20063;-67
2021/05/07 03:18:14;;;;;;;12.93;7.78;;;7.30;99.90;;;;;;5040240;28;20529;-67
2021/05/07 03:20:42;;;;;;;13.05;8.25;;;7.30;99.90;;;;;;5041685;28;20599;-68
2021/05/07 03:23:08;;;;;;;14.38;8.88;;;7.20;99.90;;;;;;5038964;28;20143;-68
2021/05/07 03:25:35;;;;;;;;;;;7.20;99.90;;;;;;5046940;28;20083;-67
2021/05/07 03:28:01;;;;;;;12.67;7.57;;;7.20;99.90;;;;;;5041288;28;20332;-67
2021/05/07 03:30:28;;;;;;;14.20;7.45;;;7.10;99.90;;;;;;5039363;28;20067;-67
2021/05/07 03:32:54;;;;;;;11.93;7.33;;;7.10;99.90;;;;;;5044595;28;20548;-67
2021/05/07 03:35:20;;;;;;;;;;;7.10;99.90;;;;;;5041358;28;20731;-67
2021/05/07 03:37:48;;;;;;;13.40;8.20;;;7.00;99.90;;;;;;5040949;28;19968;-67
2021/05/07 03:40:15;;;;;;;13.67;7.83;;;7.10;99.90;;;;;;5042958;28;20051;-67
2021/05/07 03:42:41;;;;;;;16.00;9.33;;;7.10;99.90;;;;;;5039991;28;20851;-67
2021/05/07 03:45:08;;;;;;;;;;;7.10;99.90;;;;;;5043091;28;20071;-67
2021/05/07 03:47:34;;;;;;;17.15;9.20;;;7.10;99.90;;;;;;5040420;28;19927;-68
2021/05/07 03:50:00;;;;;;;14.47;9.00;;;7.10;99.90;;;;;;5041373;28;20108;-68
2021/05/07 03:52:27;;;;;;;;;;;7.10;99.90;;;;;;5043184;28;20092;-67
2021/05/07 03:54:54;;;;;;;15.23;9.03;;;7.00;99.90;;;;;;5039929;28;19931;-68
2021/05/07 03:57:22;;;;;;;16.97;9.53;;;7.00;99.90;;;;;;5041707;28;20044;-68
2021/05/07 03:59:49;;;;;;;15.80;9.53;;;7.00;99.90;;;;;;5041003;28;20060;-67
2021/05/07 04:02:15;;;;;;;17.43;9.33;;;7.00;99.90;;;;;;5043634;28;20785;-67
2021/05/07 04:04:43;;;;;;;16.53;9.60;;;7.00;99.90;;;;;;5042859;28;20067;-68
2021/05/07 04:07:11;;;;;;;17.43;9.37;;;7.00;99.90;;;;;;5043793;28;20497;-68
2021/05/07 04:09:38;;;;;;;17.03;8.90;;;7.10;99.90;;;;;;5045025;28;20140;-68
2021/05/07 04:12:17;;;;;;;16.33;10.27;;;7.00;99.90;;;;;;5039662;28;20052;-68
2021/05/07 04:14:44;;;;;;;16.40;9.40;;;7.10;99.90;;;;;;5041032;28;20504;-68
2021/05/07 04:17:10;;;;;;;16.05;9.30;;;7.00;99.90;;;;;;5041103;28;20455;-68
2021/05/07 04:19:37;;;;;;;16.48;9.18;;;7.10;99.90;;;;;;5042430;28;20048;-68
2021/05/07 04:22:04;;;;;;;18.67;9.90;;;7.10;99.90;;;;;;5040420;28;20496;-68
2021/05/07 04:24:30;;;;;;;15.87;9.67;;;7.00;99.90;;;;;;5043791;28;20052;-68
2021/05/07 04:26:57;;;;;;;13.73;7.87;;;7.00;99.90;;;;;;5041731;28;20149;-68
2021/05/07 04:29:25;;;;;;;13.95;8.63;;;7.00;99.90;;;;;;5041018;28;20603;-68
2021/05/07 04:31:52;;;;;;;15.02;8.52;;;7.00;99.90;;;;;;5048078;28;20428;-68
2021/05/07 04:34:19;;;;;;;14.75;8.25;;;7.10;99.90;;;;;;5047414;28;20048;-68
2021/05/07 04:36:45;;;;;;;15.43;8.73;;;7.00;99.90;;;;;;5048080;28;20144;-68
2021/05/07 04:39:11;;;;;;;;;;;7.10;99.90;;;;;;5045078;28;20500;-68
2021/05/07 04:41:38;;;;;;;16.08;8.60;;;7.10;99.90;;;;;;5044719;28;19924;-68
2021/05/07 04:44:05;;;;;;;15.95;8.57;;;7.10;99.90;;;;;;5045639;28;20048;-69
2021/05/07 04:46:33;;;;;;;14.93;8.70;;;7.10;99.90;;;;;;5048615;28;20440;-68
2021/05/07 04:48:59;;;;;;;15.60;8.68;;;7.10;99.90;;;;;;5050258;28;20044;-68
2021/05/07 04:51:26;;;;;;;17.35;9.80;;;7.20;99.90;;;;;;5047471;28;20083;-68
2021/05/07 04:53:52;;;;;;;16.98;9.07;;;7.10;99.90;;;;;;5045612;28;20056;-68
2021/05/07 04:56:19;;;;;;;15.70;9.07;;;7.10;99.90;;;;;;5045594;28;20078;-68
2021/05/07 04:58:45;;;;;;;;;;;7.10;99.90;;;;;;5042244;28;20048;-68
2021/05/07 05:01:11;;;;;;;16.58;8.63;;;7.20;99.90;;;;;;5047021;28;19928;-68
2021/05/07 05:03:39;;;;;;;15.20;8.27;;;7.20;99.90;;;;;;5041964;28;20049;-68
2021/05/07 05:06:05;;;;;;;15.38;8.88;;;7.10;99.90;;;;;;5044447;28;20076;-67
2021/05/07 05:08:32;;;;;;;17.60;9.30;;;7.20;99.90;;;;;;5045284;28;20511;-67
2021/05/07 05:10:59;;;;;;;14.40;8.48;;;7.20;99.90;;;;;;5043240;28;20048;-68
2021/05/07 05:13:26;;;;;;;18.27;9.37;;;7.20;99.90;;;;;;5044866;28;20170;-67
2021/05/07 05:15:54;;;;;;;15.50;8.87;;;7.10;99.90;;;;;;5044369;28;20090;-68
2021/05/07 05:18:28;;;;;;;15.30;8.43;;;7.10;99.90;;;;;;5043514;28;20060;-68
2021/05/07 05:20:57;;;;;;;16.60;8.50;;;7.10;99.90;;;;;;5046377;28;20121;-68
2021/05/07 05:23:25;;;;;;;16.50;9.13;;;7.00;99.90;;;;;;5043773;28;20407;-68
2021/05/07 05:25:52;;;;;;;17.60;9.40;;;7.00;99.90;;;;;;5055055;28;20052;-68
2021/05/07 05:28:19;;;;;;;14.17;8.33;;;7.20;99.90;;;;;;5043563;28;20530;-68
2021/05/07 05:30:45;;;;;;;14.70;8.70;;;7.20;99.90;;;;;;5044938;28;20526;-68
2021/05/07 05:33:12;;;;;;;14.82;7.97;;;7.10;99.90;;;;;;5044251;28;21215;-68
2021/05/07 05:35:38;;;;;;;16.45;9.55;;;7.30;99.90;;;;;;5046857;28;20097;-68
2021/05/07 05:38:07;;;;;;;18.10;9.43;;;7.30;99.90;;;;;;5041861;28;20052;-68
2021/05/07 05:40:33;;;;;;;15.63;8.10;;;7.40;99.90;;;;;;5041209;28;20044;-68
2021/05/07 05:43:01;;;;;;;15.65;8.82;;;7.40;99.90;;;;;;5042404;28;20048;-68
2021/05/07 05:45:27;;;;;;;13.45;7.50;;;7.40;99.90;;;;;;5045383;28;20060;-67
2021/05/07 05:48:01;;;;;;;15.20;8.27;;;7.40;99.90;;;;;;5037103;28;20052;-66
2021/05/07 05:50:28;;;;;;;13.77;7.78;;;7.30;99.90;;;;;;5043419;28;20141;-66
2021/05/07 05:52:54;;;;;;;14.18;7.85;;;7.40;99.90;;;;;;5037716;28;20063;-66
2021/05/07 05:55:22;;;;;;;;;;;7.30;99.90;;;;;;5042508;28;20823;-66
2021/05/07 05:57:49;;;;;;;13.10;7.53;;;7.30;99.90;;;;;;5039695;28;19924;-66
2021/05/07 06:00:17;;;;;;;12.50;7.47;;;7.30;99.90;;;;;;5042045;28;20071;-66
2021/05/07 06:02:43;;;;;;;13.07;6.93;;;7.30;99.90;;;;;;5043024;28;20604;-65
2021/05/07 06:05:11;;;;;;;15.25;7.40;;;7.40;99.90;;;;;;5038309;28;20161;-66
2021/05/07 06:07:42;;;;;;;12.57;7.97;;;7.40;99.90;;;;;;5035592;28;20053;-66
2021/05/07 06:10:11;;;;;;;12.23;6.80;;;7.40;99.90;;;;;;5036686;28;20083;-66
2021/05/07 06:12:39;;;;;;;14.77;8.20;;;7.40;99.90;;;;;;5041977;28;20056;-67
2021/05/07 06:15:07;;;;;;;14.23;8.10;;;7.50;99.90;;;;;;5043689;28;20602;-67
2021/05/07 06:17:34;;;;;;;12.75;7.25;;;7.30;99.90;;;;;;5039475;28;20110;-67
2021/05/07 06:20:02;;;;;;;12.35;6.70;;;7.40;99.90;;;;;;5042343;28;20133;-67
2021/05/07 06:22:29;;;;;;;12.23;7.22;;;7.40;99.90;;;;;;5042293;28;20056;-67
2021/05/07 06:24:56;;;;;;;11.82;6.53;;;7.40;99.90;;;;;;5044174;28;21296;-67
2021/05/07 06:27:22;;;;;;;12.45;6.93;;;7.50;99.90;;;;;;5044278;28;20512;-66
2021/05/07 06:29:49;;;;;;;;;;;7.60;99.90;;;;;;5041288;28;20178;-67
2021/05/07 06:32:16;;;;;;;9.05;5.10;;;7.60;99.90;;;;;;5042764;28;21425;-67
2021/05/07 06:34:42;;;;;;;;;;;7.70;99.90;;;;;;5043879;28;20575;-66
2021/05/07 06:37:08;;;;;;;8.70;5.28;;;7.70;99.90;;;;;;5038727;28;19934;-66
2021/05/07 06:39:35;;;;;;;9.00;5.20;;;7.80;99.90;;;;;;5041038;28;20075;-66
2021/05/07 06:42:02;;;;;;;8.27;5.13;;;7.80;99.90;;;;;;5041043;28;20052;-66
2021/05/07 06:44:29;;;;;;;10.55;5.80;;;7.80;99.90;;;;;;5042377;28;20067;-66
2021/05/07 06:46:56;;;;;;;9.60;5.57;;;7.90;99.90;;;;;;5039935;28;20080;-66
2021/05/07 06:49:24;;;;;;;9.32;5.40;;;7.90;99.90;;;;;;5043568;28;20526;-66
2021/05/07 06:51:51;;;;;;;9.02;5.20;;;8.00;99.90;;;;;;5042843;28;20055;-66
2021/05/07 06:54:18;;;;;;;9.57;5.93;;;8.00;99.90;;;;;;5045141;28;20047;-66
2021/05/07 06:56:44;;;;;;;11.98;6.20;;;8.10;99.90;;;;;;5041530;28;20745;-67
2021/05/07 06:59:11;;;;;;;9.60;6.07;;;8.40;99.90;;;;;;5042553;28;20106;-66
2021/05/07 07:01:38;;;;;;;10.70;6.20;;;8.40;99.90;;;;;;5044531;28;20456;-66
2021/05/07 07:04:07;;;;;;;10.90;6.45;;;8.40;99.90;;;;;;5044783;28;20129;-66
2021/05/07 07:06:34;;;;;;;9.98;5.47;;;8.50;99.90;;;;;;5045162;28;20053;-66
2021/05/07 07:09:00;;;;;;;10.90;5.90;;;8.60;99.90;;;;;;5044879;28;20564;-67
2021/05/07 07:11:26;;;;;;;;;;;8.50;99.90;;;;;;5043617;28;20081;-66
2021/05/07 07:13:53;;;;;;;10.23;5.43;;;8.70;99.90;;;;;;5039703;28;19924;-66
2021/05/07 07:16:19;;;;;;;8.75;4.88;;;8.60;99.90;;;;;;5042306;28;20087;-66
2021/05/07 07:18:46;;;;;;;;;;;8.70;99.90;;;;;;5042033;28;20973;-66
2021/05/07 07:21:13;;;;;;;9.20;5.20;;;8.80;99.90;;;;;;5045323;28;19955;-66
2021/05/07 07:23:40;;;;;;;9.45;5.28;;;8.80;99.90;;;;;;5045580;28;20076;-68
2021/05/07 07:26:06;;;;;;;9.95;5.65;;;9.00;99.90;;;;;;5042254;28;20094;-67
2021/05/07 07:28:33;;;;;;;8.70;5.50;;;9.10;99.90;;;;;;5041093;28;20117;-66
2021/05/07 07:30:59;;;;;;;8.48;4.97;;;9.30;99.90;;;;;;5041399;28;20116;-67
2021/05/07 07:33:26;;;;;;;9.73;5.38;;;9.20;99.90;;;;;;5041576;28;20079;-66
2021/05/07 07:35:52;;;;;;;;;;;8.90;99.90;;;;;;5041658;28;20057;-66
2021/05/07 07:38:22;;;;;;;9.68;5.00;;;8.90;99.90;;;;;;5040068;28;19924;-66
2021/05/07 07:40:49;;;;;;;8.45;4.78;;;9.00;99.90;;;;;;5042066;28;20051;-66
2021/05/07 07:43:17;;;;;;;9.23;5.00;;;9.30;99.90;;;;;;5044069;28;20048;-66
2021/05/07 07:45:44;;;;;;;8.88;4.88;;;9.70;99.90;;;;;;5042877;28;20141;-66
2021/05/07 07:48:11;;;;;;;9.55;5.03;;;9.90;99.90;;;;;;5035739;28;20560;-66
2021/05/07 07:50:38;;;;;;;8.10;4.45;;;9.50;99.90;;;;;;5041772;28;20056;-66
2021/05/07 07:53:04;;;;;;;7.35;3.90;;;9.40;99.90;;;;;;5039465;28;20051;-66
2021/05/07 07:55:32;;;;;;;5.88;3.92;;;9.60;99.90;;;;;;5042527;28;20080;-66
2021/05/07 07:57:58;;;;;;;7.40;3.40;;;9.50;99.90;;;;;;5043725;28;20076;-66
2021/05/07 08:00:25;;;;;;;;;;;9.60;99.90;;;;;;5044649;28;20083;-67
2021/05/07 08:02:52;;;;;;;7.95;3.58;;;9.80;99.90;;;;;;5041027;28;19924;-66
2021/05/07 08:05:18;;;;;;;6.38;3.65;;;10.00;99.90;;;;;;5039005;28;20132;-66
2021/05/07 08:07:45;;;;;;;8.85;3.47;;;10.10;99.90;;;;;;5043131;28;20047;-66
2021/05/07 08:10:14;;;;;;;6.63;3.72;;;10.30;99.90;;;;;;5041256;28;20625;-67
2021/05/07 08:12:42;;;;;;;5.72;3.30;;;10.40;99.90;;;;;;5035961;28;21391;-66
2021/05/07 08:15:09;;;;;;;9.05;4.00;;;10.70;99.90;;;;;;5038595;28;20417;-66
2021/05/07 08:17:36;;;;;;;6.80;3.72;;;10.40;99.90;;;;;;5031882;28;20079;-66
2021/05/07 08:20:03;;;;;;;6.07;3.28;;;10.40;99.90;;;;;;5039617;28;20094;-66
2021/05/07 08:22:30;;;;;;;7.63;3.60;;;10.60;99.90;;;;;;5038077;28;20087;-67
2021/05/07 08:25:00;;;;;;;5.10;3.47;;;10.50;99.90;;;;;;5043170;28;20075;-67
2021/05/07 08:27:29;;;;;;;6.57;2.70;;;10.80;99.90;;;;;;5039486;28;20113;-68
2021/05/07 08:29:57;;;;;;;7.15;3.40;;;10.90;99.90;;;;;;5041591;28;20072;-68
2021/05/07 08:32:23;;;;;;;6.78;3.30;;;10.60;99.90;;;;;;5043745;28;20542;-66
2021/05/07 08:34:50;;;;;;;9.30;3.67;;;11.10;99.90;;;;;;5041739;28;20080;-68
2021/05/07 08:37:16;;;;;;;6.70;3.33;;;11.60;99.90;;;;;;5041554;28;20063;-68
2021/05/07 08:39:43;;;;;;;6.38;3.30;;;11.80;99.90;;;;;;5043939;28;20087;-68
2021/05/07 08:42:09;;;;;;;;;;;11.70;99.90;;;;;;5046286;28;20079;-67
2021/05/07 08:44:36;;;;;;;7.25;3.40;;;11.90;99.90;;;;;;5045152;28;20308;-67
2021/05/07 08:47:04;;;;;;;5.22;2.90;;;12.00;99.90;;;;;;5048112;28;20500;-70
2021/05/07 08:49:31;;;;;;;6.28;2.85;;;11.90;99.90;;;;;;5046474;28;20159;-76
2021/05/07 08:51:58;;;;;;;7.70;3.20;;;11.60;99.90;;;;;;5048551;28;20045;-73
2021/05/07 08:54:28;;;;;;;7.43;2.78;;;11.60;99.90;;;;;;5049356;28;20048;-72
2021/05/07 08:56:55;;;;;;;7.60;2.97;;;11.60;99.90;;;;;;5042853;28;20087;-71
2021/05/07 08:59:22;;;;;;;5.88;2.70;;;12.60;99.90;;;;;;5046636;28;20049;-68
2021/05/07 09:01:50;;;;;;;5.45;3.25;;;13.60;99.90;;;;;;5046229;28;20079;-66
2021/05/07 09:04:19;;;;;;;5.97;3.40;;;13.30;99.90;;;;;;5046899;28;20059;-67
2021/05/07 09:06:50;;;;;;;6.35;3.03;;;13.30;99.90;;;;;;5047215;28;20504;-64
2021/05/07 09:09:23;;;;;;;7.93;4.07;;;12.80;99.90;;;;;;5045211;28;20679;-64
2021/05/07 09:11:50;;;;;;;7.53;3.50;;;12.60;99.90;;;;;;5046281;28;20048;-64
2021/05/07 09:14:17;;;;;;;6.95;3.47;;;12.10;99.90;;;;;;5045267;28;20415;-65
2021/05/07 09:16:52;;;;;;;6.82;3.15;;;12.10;99.90;;;;;;5043913;28;20054;-67
2021/05/07 09:19:20;;;;;;;6.32;3.47;;;13.30;99.90;;;;;;5044198;28;20052;-68
2021/05/07 09:21:47;;;;;;;6.28;3.17;;;14.10;99.90;;;;;;5044293;28;20059;-69
2021/05/07 09:24:14;;;;;;;6.20;3.38;;;14.10;99.90;;;;;;5042855;28;20062;-67
2021/05/07 09:26:48;;;;;;;6.22;3.40;;;13.80;99.90;;;;;;5044233;28;20131;-67
2021/05/07 09:29:25;;;;;;;6.35;3.70;;;13.20;99.90;;;;;;5040581;28;20089;-67
2021/05/07 09:31:52;;;;;;;5.85;3.50;;;12.80;99.90;;;;;;5044274;28;20961;-66
2021/05/07 09:34:21;;;;;;;6.45;3.75;;;12.30;99.90;;;;;;5043567;28;20052;-67
2021/05/07 09:36:48;;;;;;;8.18;3.85;;;11.90;99.90;;;;;;5043719;28;20086;-67
2021/05/07 09:39:16;;;;;;;6.80;3.67;;;13.40;99.90;;;;;;5041832;28;20063;-66
2021/05/07 09:41:43;;;;;;;7.28;3.70;;;14.40;99.90;;;;;;5040146;28;20117;-65
2021/05/07 09:44:18;;;;;;;6.10;3.67;;;14.50;99.90;;;;;;5041614;28;20091;-65
2021/05/07 09:46:45;;;;;;;8.45;3.45;;;14.40;99.90;;;;;;5052911;28;20080;-65
2021/05/07 09:49:23;;;;;;;8.18;4.30;;;15.40;99.90;;;;;;5054171;28;20112;-65
2021/05/07 09:51:50;;;;;;;7.82;4.15;;;15.70;99.90;;;;;;5043464;28;20086;-65
2021/05/07 09:54:17;;;;;;;6.75;3.33;;;15.10;99.90;;;;;;5043161;28;20076;-64
2021/05/07 09:56:44;;;;;;;4.65;2.90;;;15.60;99.90;;;;;;5040857;28;20067;-65
2021/05/07 09:59:11;;;;;;;5.57;3.22;;;15.80;99.90;;;;;;5043813;28;20099;-65
2021/05/07 10:01:38;;;;;;;7.63;3.33;;;15.20;99.90;;;;;;5043384;28;20123;-65
2021/05/07 10:04:05;;;;;;;5.90;3.20;;;14.10;99.90;;;;;;5042178;28;20075;-65
2021/05/07 10:06:33;;;;;;;6.72;3.60;;;13.90;99.90;;;;;;5041100;28;20063;-64
2021/05/07 10:08:59;;;;;;;10.88;4.10;;;12.70;99.90;;;;;;5043645;28;20056;-64
2021/05/07 10:11:35;;;;;;;7.25;3.53;;;13.10;99.90;;;;;;5043773;28;20054;-64
2021/05/07 10:14:07;;;;;;;8.52;4.60;;;13.50;99.90;;;;;;5044928;28;20057;-64
2021/05/07 10:16:34;;;;;;;14.45;4.18;;;13.40;99.90;;;;;;5044971;28;20056;-64
2021/05/07 10:19:02;;;;;;;9.30;4.53;;;14.60;99.90;;;;;;5044874;28;20052;-65
2021/05/07 10:21:37;;;;;;;7.97;3.42;;;15.30;99.90;;;;;;5039896;28;20048;-65
2021/05/07 10:24:05;;;;;;;6.60;3.35;;;16.00;99.90;;;;;;5043765;28;20044;-67
2021/05/07 10:26:36;;;;;;;5.57;3.20;;;16.10;99.90;;;;;;5042452;28;20056;-66
2021/05/07 10:29:13;;;;;;;6.18;3.28;;;16.80;99.90;;;;;;5041621;28;20135;-66
2021/05/07 10:31:45;;;;;;;5.80;3.08;;;17.60;99.80;;;;;;5032845;28;20163;-68
2021/05/07 10:34:11;;;;;;;7.00;3.70;;;17.60;93.30;;;;;;5041674;28;20052;-67
2021/05/07 10:36:40;;;;;;;7.97;3.60;;;16.40;92.80;;;;;;5042656;28;20083;-67
2021/05/07 10:39:26;;;;;;;6.32;3.10;;;15.80;97.10;;;;;;5042315;28;21637;-68
2021/05/07 10:41:53;;;;;;;7.03;3.42;;;15.20;94.60;;;;;;5041763;28;20122;-68
2021/05/07 10:44:22;;;;;;;5.45;3.63;;;16.00;96.80;;;;;;5041892;28;20086;-68
2021/05/07 10:46:59;;;;;;;7.28;3.92;;;15.50;97.90;;;;;;5042750;28;20505;-67
2021/05/07 10:49:31;;;;;;;7.22;4.30;;;15.70;96.10;;;;;;5041389;28;20044;-67
2021/05/07 10:51:59;;;;;;;7.00;4.00;;;16.70;99.30;;;;;;5042353;28;20090;-66
2021/05/07 10:54:36;;;;;;;8.40;4.30;;;17.70;97.20;;;;;;5040397;28;20251;-66
2021/05/07 10:57:02;;;;;;;9.35;4.05;;;16.80;90.20;;;;;;5043791;28;20809;-66
2021/05/07 10:59:29;;;;;;;8.40;4.30;;;16.80;91.60;;;;;;5042601;28;20052;-67
2021/05/07 11:02:00;;;;;;;7.28;4.93;;;17.90;93.40;;;;;;5040237;28;20059;-69
2021/05/07 11:04:27;;;;;;;9.40;5.00;;;17.10;88.70;;;;;;5044324;28;20045;-68
2021/05/07 11:07:01;;;;;;;8.25;5.28;;;16.30;93.00;;;;;;5041500;28;20048;-67
2021/05/07 11:09:28;;;;;;;8.13;5.55;;;17.20;94.40;;;;;;5043795;28;20057;-67
2021/05/07 11:11:56;;;;;;;7.90;5.00;;;16.90;90.20;;;;;;5041388;28;20052;-67
2021/05/07 11:14:24;;;;;;;7.85;5.07;;;17.30;90.10;;;;;;5044334;28;20468;-65
2021/05/07 11:16:52;;;;;;;7.75;5.32;;;16.90;79.90;;;;;;5043231;28;20079;-69
2021/05/07 11:19:23;;;;;;;9.52;5.20;;;17.40;86.30;;;;;;5043477;28;20143;-69
2021/05/07 11:21:51;;;;;;;8.15;5.28;;;17.30;77.40;;;;;;5042045;28;20048;-68
2021/05/07 11:24:21;;;;;;;7.47;4.53;;;16.80;81.10;;;;;;5040779;28;20086;-67
2021/05/07 11:26:51;;;;;;;9.23;5.35;;;17.70;81.00;;;;;;5041179;28;20559;-67
2021/05/07 11:29:31;;;;;;;6.85;5.00;;;16.20;80.00;;;;;;5041590;28;20096;-67
2021/05/07 11:32:12;;;;;;;6.97;4.32;;;15.60;78.60;;;;;;5035183;28;20052;-67
2021/05/07 11:34:39;;;;;;;7.30;4.70;;;14.90;80.00;;;;;;5045573;28;20124;-67
2021/05/07 11:37:06;;;;;;;8.63;5.38;;;14.10;77.90;;;;;;5045621;28;20052;-67
2021/05/07 11:39:34;;;;;;;7.65;4.93;;;13.90;86.60;;;;;;5037859;28;20488;-66
2021/05/07 11:42:00;;;;;;;8.98;4.78;;;13.40;82.60;;;;;;5040988;28;21176;-66
2021/05/07 11:44:27;;;;;;;7.40;4.28;;;14.30;81.90;;;;;;5038604;28;20500;-66
2021/05/07 11:47:05;;;;;;;9.20;5.28;;;14.70;83.60;;;;;;5039654;28;20045;-66
2021/05/07 11:49:36;;;;;;;7.97;4.60;;;14.20;82.50;;;;;;5042872;28;20133;-67
2021/05/07 11:52:03;;;;;;;7.28;3.72;;;15.20;80.80;;;;;;5035949;28;20137;-66
2021/05/07 11:54:41;;;;;;;8.20;4.30;;;14.90;80.00;;;;;;5033644;28;20459;-66
2021/05/07 11:57:08;;;;;;;6.53;4.07;;;15.20;75.10;;;;;;5037799;28;20056;-67
2021/05/07 11:59:38;;;;;;;10.57;4.43;;;16.00;77.10;;;;;;5036780;28;20072;-66
2021/05/07 12:02:05;;;;;;;8.13;4.57;;;16.30;83.90;;;;;;5042761;28;20097;-66
2021/05/07 12:04:42;;;;;;;6.80;4.38;;;16.30;78.00;;;;;;5038502;28;20509;-66
2021/05/07 12:07:29;;;;;;;7.88;4.63;;;15.00;76.40;;;;;;5033742;28;20102;-66
2021/05/07 12:09:57;;;;;;;8.87;5.43;;;15.10;76.40;;;;;;5042694;28;20469;-66
2021/05/07 12:12:26;;;;;;;7.72;4.32;;;15.30;80.80;;;;;;5039103;28;20087;-67
2021/05/07 12:15:01;;;;;;;9.30;4.10;;;15.20;81.20;;;;;;5034856;28;20047;-66
2021/05/07 12:17:38;;;;;;;6.60;3.22;;;14.80;75.30;;;;;;5035417;28;20075;-65
2021/05/07 12:20:05;;;;;;;7.18;3.83;;;15.00;80.80;;;;;;5037406;28;20040;-66
2021/05/07 12:22:33;;;;;;;7.13;3.95;;;15.30;77.90;;;;;;5038886;28;20511;-67
2021/05/07 12:25:08;;;;;;;7.07;4.18;;;14.20;76.50;;;;;;5041179;28;20080;-66
2021/05/07 12:27:35;;;;;;;6.32;3.47;;;15.10;81.30;;;;;;5040065;28;20080;-67
2021/05/07 12:30:01;;;;;;;6.43;3.72;;;15.20;78.10;;;;;;5042589;28;20524;-66
2021/05/07 12:32:28;;;;;;;7.32;4.32;;;14.20;79.00;;;;;;5040380;28;20424;-67
2021/05/07 12:34:56;;;;;;;7.47;4.20;;;13.60;79.60;;;;;;5042180;28;20501;-66
2021/05/07 12:37:23;;;;;;;5.22;2.78;;;13.20;82.90;;;;;;5041342;28;20109;-66
2021/05/07 12:39:49;;;;;;;6.97;4.13;;;13.00;85.90;;;;;;5039868;28;21463;-65
2021/05/07 12:42:17;;;;;;;;;;;12.60;91.60;;;;;;5043319;28;20174;-65
2021/05/07 12:44:43;;;;;;;9.65;4.75;;;12.30;99.10;;;;;;5041102;28;19938;-64
2021/05/07 12:47:09;;;;;;;8.32;4.20;;;11.90;99.90;;;;;;5042936;28;20082;-65
2021/05/07 12:49:36;;;;;;;;;;;11.60;99.90;;;;;;5042683;28;20166;-65
2021/05/07 12:52:03;;;;;;;8.65;3.67;;;11.00;99.90;;;;;;5039626;28;19920;-62
2021/05/07 12:54:31;;;;;;;6.63;3.50;;;9.90;99.90;;;;;;5043258;28;20049;-64
2021/05/07 12:56:58;;;;;;;9.38;4.10;;;9.50;99.90;;;;;;5042092;28;20531;-65
2021/05/07 12:59:26;;;;;;;6.10;2.97;;;8.90;99.90;;;;;;5042338;28;20048;-65